NY96 weather

Mexico Airdrome Airport
Mexico, New York, United States

Public forecast

Using degrees Fahrenheit for public forecast. Weather courtesy of forecast.io.

Closest aviation weather report (METAR) to Mexico Airdrome Airport

Closest report is Oswego County Airport, 9.6 nm (17.8 km) WSW. Retrieved 2019/10/15 02:54 UTC (40 minutes ago):

KFZY 150254Z AUTO 22004KT 10SM CLR 06/02 A3008 RMK AO2 SLP189 T00560022 51008

Closest aviation forecast (TAF) to Mexico Airdrome Airport

Closest forecast is Syracuse Hancock International Airport, 19.3 nm (35.8 km) SSE. Retrieved 2019-10-15 00:42 UTC (3 hours ago):

TAF KSYR 142341Z 1500/1524 24005KT P6SM FEW045 BKN080 FM150500 25004KT P6SM FEW080 SCT180 FM151400 22006KT P6SM SCT250